Time;durP1;ratioP1;P1;durP2;ratioP2;P2;SDS_P1;SDS_P2;PMS_P1;PMS_P2;Temp;Humidity;BMP_temperature;BMP_pressure;BME280_temperature;BME280_humidity;BME280_pressure;Samples;Min_cycle;Max_cycle;Signal;HPM_P1;HPM_P2
2023/05/13 00:01:09;;;;;;;7.75;4.32;;;;;;;7.96;99.36;101115.75;5052206;28;20060;-74
2023/05/13 00:03:34;;;;;;;8.65;3.60;;;;;;;7.88;99.92;101121.31;5034684;28;20122;-74
2023/05/13 00:06:00;;;;;;;9.68;3.92;;;;;;;7.81;99.52;101106.31;5052539;28;20074;-74
2023/05/13 00:08:25;;;;;;;6.95;4.00;;;;;;;7.88;98.34;101113.59;5033937;28;20398;-75
2023/05/13 00:10:51;;;;;;;8.10;3.67;;;;;;;7.63;98.64;101058.97;5052981;28;20789;-73
2023/05/13 00:13:16;;;;;;;7.22;3.67;;;;;;;7.78;97.61;101071.03;5052454;28;20479;-73
2023/05/13 00:15:42;;;;;;;7.43;3.75;;;;;;;7.93;98.37;101101.91;5051776;28;20036;-73
2023/05/13 00:18:07;;;;;;;9.05;3.83;;;;;;;7.76;99.36;101084.59;5060593;28;20044;-74
2023/05/13 00:20:32;;;;;;;7.43;3.83;;;;;;;7.89;99.94;101092.25;5052516;28;20028;-77
2023/05/13 00:22:58;;;;;;;9.90;4.07;;;;;;;7.80;99.64;101078.88;5052028;28;20031;-74
2023/05/13 00:25:23;;;;;;;8.65;3.75;;;;;;;7.75;100.00;101062.28;5051652;28;20053;-74
2023/05/13 00:27:49;;;;;;;9.65;4.30;;;;;;;7.19;100.00;100970.81;5051873;28;20035;-78
2023/05/13 00:30:14;;;;;;;7.25;4.25;;;;;;;7.76;100.00;101077.81;5051520;28;20471;-73
2023/05/13 00:32:40;;;;;;;8.55;3.83;;;;;;;7.31;100.00;100991.22;5052270;28;20471;-73
2023/05/13 00:35:05;;;;;;;12.40;4.50;;;;;;;7.91;100.00;101076.91;5051848;28;20538;-74
2023/05/13 00:37:31;;;;;;;8.73;4.20;;;;;;;7.83;100.00;101063.63;5051525;28;20021;-73
2023/05/13 00:39:56;;;;;;;12.55;4.05;;;;;;;7.98;100.00;101091.00;5051831;28;20426;-73
2023/05/13 00:42:23;;;;;;;7.80;4.20;;;;;;;7.88;100.00;101081.88;5051691;28;20036;-73
2023/05/13 00:44:48;;;;;;;12.23;4.60;;;;;;;7.53;100.00;101089.28;5051207;28;20028;-73
2023/05/13 00:47:15;;;;;;;7.22;4.45;;;;;;;7.24;100.00;101088.44;5051897;28;20025;-73
2023/05/13 00:49:41;;;;;;;8.75;4.43;;;;;;;6.88;100.00;101070.00;5051702;28;20029;-74
2023/05/13 00:52:06;;;;;;;7.80;4.43;;;;;;;6.82;100.00;101067.06;5051524;28;20039;-73
2023/05/13 00:54:32;;;;;;;6.82;4.68;;;;;;;6.53;100.00;101019.97;5051684;28;20064;-73
2023/05/13 00:56:58;;;;;;;11.27;4.85;;;;;;;7.07;100.00;101095.13;5051349;28;20029;-75
2023/05/13 00:59:25;;;;;;;7.78;4.63;;;;;;;7.08;100.00;101096.03;5050977;28;20043;-76
2023/05/13 01:02:27;;;;;;;7.95;4.55;;;;;;;7.09;100.00;101097.78;5051346;28;20044;-75
2023/05/13 01:05:11;;;;;;;7.03;4.70;;;;;;;7.12;100.00;101103.09;5051232;28;20032;-78
2023/05/13 01:07:46;;;;;;;7.43;4.43;;;;;;;7.05;100.00;101096.72;5050713;28;20067;-76
2023/05/13 01:10:46;;;;;;;7.72;4.93;;;;;;;7.01;100.00;101091.31;5050919;28;20028;-78
2023/05/13 01:13:12;;;;;;;;;;;;;;;7.06;99.66;101103.59;5051917;28;20029;-75
2023/05/13 01:15:44;;;;;;;6.75;3.67;;;;;;;7.04;99.62;101096.59;5051265;28;19913;-76
2023/05/13 01:18:22;;;;;;;6.03;4.13;;;;;;;6.54;99.21;101031.09;5050531;28;20021;-76
2023/05/13 01:20:47;;;;;;;7.63;4.57;;;;;;;6.43;99.33;101041.59;5051258;28;20094;-75
2023/05/13 01:23:33;;;;;;;10.55;4.30;;;;;;;6.81;99.21;101088.38;5008677;28;20037;-75
2023/05/13 01:25:59;;;;;;;7.10;3.95;;;;;;;6.69;98.93;101092.75;5008517;28;20103;-76
2023/05/13 01:28:24;;;;;;;7.53;4.18;;;;;;;6.53;99.45;101073.84;5008530;28;20120;-76
2023/05/13 01:30:50;;;;;;;12.48;4.85;;;;;;;6.79;99.41;101115.63;5008607;28;20401;-77
2023/05/13 01:33:16;;;;;;;7.60;3.97;;;;;;;6.77;99.20;101128.34;4992298;28;20042;-79
2023/05/13 01:35:44;;;;;;;7.43;4.13;;;;;;;6.83;98.87;101124.41;4992134;28;20041;-78
2023/05/13 01:38:10;;;;;;;9.35;4.50;;;;;;;6.73;98.50;101136.66;4995121;28;20049;-78
2023/05/13 01:40:36;;;;;;;7.50;4.38;;;;;;;6.12;99.54;101075.53;5008316;28;20036;-76
2023/05/13 01:43:02;;;;;;;9.77;4.93;;;;;;;6.33;100.00;101129.00;5007867;28;20424;-78
2023/05/13 01:45:28;;;;;;;9.18;4.63;;;;;;;6.36;100.00;101130.88;5008417;28;20038;-76
2023/05/13 01:47:54;;;;;;;7.32;4.55;;;;;;;6.15;100.00;101126.97;5008373;28;20188;-75
2023/05/13 01:50:20;;;;;;;9.63;4.82;;;;;;;5.51;100.00;101059.56;5008454;28;20128;-76
2023/05/13 01:52:45;;;;;;;9.05;4.30;;;;;;;6.17;100.00;101152.75;5008256;28;20501;-73
2023/05/13 01:55:11;;;;;;;9.02;4.30;;;;;;;6.04;100.00;101155.28;5040193;28;20480;-73
2023/05/13 01:57:36;;;;;;;8.00;4.22;;;;;;;5.61;100.00;101061.94;5049820;28;20024;-73
2023/05/13 02:00:03;;;;;;;9.00;4.43;;;;;;;6.03;100.00;101140.69;5050413;28;20104;-82
2023/05/13 02:02:29;;;;;;;9.05;4.13;;;;;;;6.21;100.00;101164.97;5050738;28;20057;-74
2023/05/13 02:04:54;;;;;;;8.32;4.25;;;;;;;6.30;100.00;101160.44;5050592;28;20086;-74
2023/05/13 02:07:20;;;;;;;9.32;4.18;;;;;;;6.24;99.39;101144.69;5051064;28;20486;-74
2023/05/13 02:09:45;;;;;;;6.93;4.05;;;;;;;6.46;99.37;101162.31;5050517;28;20033;-73
2023/05/13 02:12:11;;;;;;;7.05;4.45;;;;;;;6.55;98.30;101156.91;5032600;28;20115;-78
2023/05/13 02:14:37;;;;;;;6.50;4.25;;;;;;;6.62;98.19;101163.31;5050675;28;20032;-77
2023/05/13 02:17:03;;;;;;;9.57;4.75;;;;;;;6.45;98.64;101165.66;5050674;28;20032;-74
2023/05/13 02:19:28;;;;;;;7.80;4.80;;;;;;;6.44;98.59;101160.44;5050398;28;20510;-74
2023/05/13 02:21:53;;;;;;;8.18;4.57;;;;;;;5.90;99.08;101080.03;5050478;28;20115;-78
2023/05/13 02:24:20;;;;;;;9.00;5.05;;;;;;;6.42;99.36;101168.06;5032499;28;20044;-74
2023/05/13 02:26:45;;;;;;;7.55;4.57;;;;;;;6.48;99.53;101159.88;5050465;28;20029;-74
2023/05/13 02:29:11;;;;;;;7.72;4.95;;;;;;;6.51;100.00;101154.94;5050450;28;20040;-74
2023/05/13 02:31:36;;;;;;;8.65;5.25;;;;;;;6.51;100.00;101149.78;5050147;28;20029;-74
2023/05/13 02:34:02;;;;;;;8.55;5.43;;;;;;;6.52;100.00;101150.66;5050191;28;20039;-74
2023/05/13 02:36:28;;;;;;;11.88;5.88;;;;;;;6.32;100.00;101115.28;5050536;28;20028;-75
2023/05/13 02:38:53;;;;;;;8.98;4.90;;;;;;;6.61;100.00;101154.72;5050233;28;20123;-77
2023/05/13 02:41:18;;;;;;;8.00;5.38;;;;;;;6.72;100.00;101159.66;5049996;28;20025;-73
2023/05/13 02:43:44;;;;;;;10.23;5.60;;;;;;;6.72;100.00;101159.66;5050221;28;20037;-74
2023/05/13 02:46:10;;;;;;;11.48;5.85;;;;;;;6.68;100.00;101156.03;5050322;28;20060;-73
2023/05/13 02:48:35;;;;;;;12.23;5.43;;;;;;;6.64;100.00;101154.03;5050086;28;20538;-74
2023/05/13 02:51:00;;;;;;;9.57;5.22;;;;;;;6.90;100.00;101172.75;5050088;28;20699;-76
2023/05/13 02:53:26;;;;;;;12.23;6.00;;;;;;;7.05;100.00;101158.34;5050876;28;20033;-76
2023/05/13 02:55:53;;;;;;;12.77;5.57;;;;;;;6.89;100.00;101137.63;5065940;28;20025;-76
2023/05/13 02:58:18;;;;;;;12.73;7.20;;;;;;;6.96;100.00;101155.19;5064835;28;20132;-75
2023/05/13 03:00:44;;;;;;;10.13;5.18;;;;;;;6.79;100.00;101161.81;5050071;28;20112;-76
2023/05/13 03:03:09;;;;;;;8.18;5.15;;;;;;;6.86;100.00;101148.56;5050050;28;20391;-76
2023/05/13 03:05:35;;;;;;;7.63;5.03;;;;;;;6.40;100.00;101084.09;5068755;28;20021;-76
2023/05/13 03:08:00;;;;;;;10.73;5.20;;;;;;;6.81;100.00;101147.41;5069968;28;20086;-80
2023/05/13 03:10:25;;;;;;;9.80;5.28;;;;;;;7.00;100.00;101163.97;5069822;28;20176;-76
2023/05/13 03:12:51;;;;;;;11.02;5.22;;;;;;;6.98;100.00;101171.56;5069830;28;20037;-77
2023/05/13 03:15:16;;;;;;;10.27;5.50;;;;;;;6.85;100.00;101151.06;5069855;28;20033;-77
2023/05/13 03:17:43;;;;;;;16.00;5.38;;;;;;;6.91;100.00;101157.44;5070039;28;20025;-75
2023/05/13 03:20:09;;;;;;;14.80;5.55;;;;;;;7.03;100.00;101171.84;5049811;28;20033;-76
2023/05/13 03:22:37;;;;;;;26.25;7.43;;;;;;;7.00;100.00;101164.84;5049689;28;20491;-77
2023/05/13 03:25:04;;;;;;;21.88;7.65;;;;;;;6.94;100.00;101156.75;5049828;28;20032;-76
2023/05/13 03:27:29;;;;;;;28.92;8.15;;;;;;;6.94;100.00;101179.84;5031845;28;20032;-75
2023/05/13 03:29:55;;;;;;;36.80;8.98;;;;;;;6.60;100.00;101182.84;5049495;28;20495;-75
2023/05/13 03:32:21;;;;;;;37.17;9.30;;;;;;;5.94;100.00;101133.25;5049913;28;20017;-76
2023/05/13 03:34:47;;;;;;;26.30;8.65;;;;;;;6.00;100.00;101179.81;5049907;28;20394;-76
2023/05/13 03:37:12;;;;;;;39.30;9.85;;;;;;;6.03;100.00;101200.53;5049637;28;20116;-77
2023/05/13 03:39:37;;;;;;;43.65;10.65;;;;;;;6.07;100.00;101184.56;5048610;28;20041;-76
2023/05/13 03:42:03;;;;;;;34.78;10.88;;;;;;;6.29;100.00;101209.97;5049393;28;20078;-76
2023/05/13 03:44:28;;;;;;;35.50;11.18;;;;;;;6.44;100.00;101199.81;5031687;28;20483;-77
2023/05/13 03:46:54;;;;;;;35.20;11.40;;;;;;;6.61;100.00;101205.16;5031949;28;20037;-77
2023/05/13 03:49:19;;;;;;;53.03;11.77;;;;;;;6.71;100.00;101214.34;5048844;28;20033;-80
2023/05/13 03:51:45;;;;;;;33.95;12.07;;;;;;;6.42;100.00;101226.16;5049491;28;20049;-79
2023/05/13 03:54:10;;;;;;;33.05;10.70;;;;;;;6.51;100.00;101216.50;5049576;28;20100;-76
2023/05/13 03:56:35;;;;;;;34.67;11.70;;;;;;;6.36;100.00;101203.56;5049744;28;20037;-76
2023/05/13 03:59:01;;;;;;;37.22;11.52;;;;;;;6.21;100.00;101123.06;5049796;28;20033;-76
2023/05/13 04:01:26;;;;;;;30.55;10.68;;;;;;;6.86;100.00;101217.88;5052161;28;20492;-76
2023/05/13 04:03:52;;;;;;;31.80;11.07;;;;;;;6.91;100.00;101208.78;5051837;28;20036;-76
2023/05/13 04:06:18;;;;;;;36.72;11.48;;;;;;;7.17;100.00;101224.97;5053105;28;20029;-75
2023/05/13 04:08:45;;;;;;;31.77;10.75;;;;;;;7.32;100.00;101227.59;5053040;28;20168;-76
2023/05/13 04:11:10;;;;;;;29.17;10.88;;;;;;;7.49;100.00;101227.75;5052889;28;20063;-75
2023/05/13 04:13:36;;;;;;;36.30;12.18;;;;;;;7.49;100.00;101235.47;5053014;28;20036;-76
2023/05/13 04:16:02;;;;;;;32.28;12.98;;;;;;;7.64;100.00;101238.09;5052930;28;20461;-76
2023/05/13 04:18:32;;;;;;;31.73;12.63;;;;;;;7.71;100.00;101227.38;5052938;28;20029;-77
2023/05/13 04:20:58;;;;;;;33.75;13.90;;;;;;;7.68;100.00;101217.81;5052586;28;20029;-75
2023/05/13 04:23:23;;;;;;;37.65;13.45;;;;;;;7.80;100.00;101229.63;5034845;28;20028;-76
2023/05/13 04:25:51;;;;;;;39.50;14.48;;;;;;;7.84;100.00;101235.06;5052400;28;20032;-76
2023/05/13 04:28:17;;;;;;;34.55;14.52;;;;;;;7.91;100.00;101226.91;5034443;28;20035;-75
2023/05/13 04:30:43;;;;;;;36.25;15.05;;;;;;;8.07;100.00;101223.59;5052516;28;20387;-76
2023/05/13 04:33:08;;;;;;;32.30;13.15;;;;;;;8.24;100.00;101228.81;5044436;28;20032;-75
2023/05/13 04:35:34;;;;;;;36.92;14.75;;;;;;;8.35;100.00;101222.63;5052080;28;20025;-75
2023/05/13 04:37:59;;;;;;;32.05;14.52;;;;;;;8.46;100.00;101228.44;5052095;28;20021;-76
2023/05/13 04:40:25;;;;;;;29.05;12.77;;;;;;;8.50;100.00;101232.03;5052218;28;20448;-76
2023/05/13 04:42:53;;;;;;;28.63;14.30;;;;;;;8.51;100.00;101215.81;5047611;28;20063;-76
2023/05/13 04:45:19;;;;;;;32.35;14.15;;;;;;;8.62;100.00;101222.44;5052266;28;20021;-76
2023/05/13 04:47:45;;;;;;;31.90;13.70;;;;;;;8.63;100.00;101226.81;5052272;28;20068;-80
2023/05/13 04:50:10;;;;;;;30.65;12.73;;;;;;;8.30;100.00;101164.88;5052023;28;20056;-74
2023/05/13 04:52:36;;;;;;;23.80;13.55;;;;;;;8.73;100.00;101225.63;5052050;28;20024;-76
2023/05/13 04:55:02;;;;;;;27.42;11.35;;;;;;;8.89;100.00;101233.41;5050030;28;20033;-81
2023/05/13 04:57:27;;;;;;;23.30;12.43;;;;;;;8.87;100.00;101195.50;5051760;28;20467;-76
2023/05/13 04:59:52;;;;;;;19.63;11.75;;;;;;;9.18;100.00;101239.31;5051774;28;20096;-80
2023/05/13 05:02:18;;;;;;;19.90;12.13;;;;;;;9.29;100.00;101242.47;5051171;28;20056;-74
2023/05/13 05:04:44;;;;;;;20.95;11.23;;;;;;;9.40;100.00;101235.31;5040485;28;20028;-75
2023/05/13 05:07:09;;;;;;;19.58;11.77;;;;;;;9.48;100.00;101236.63;5036161;28;20064;-77
2023/05/13 05:09:35;;;;;;;19.88;11.77;;;;;;;9.45;100.00;101233.00;5051238;28;20033;-76
2023/05/13 05:12:00;;;;;;;18.83;11.63;;;;;;;9.62;100.00;101246.78;5050584;28;20025;-76
2023/05/13 05:14:26;;;;;;;17.77;12.30;;;;;;;9.66;100.00;101244.44;5051543;28;20376;-75
2023/05/13 05:16:52;;;;;;;22.65;12.82;;;;;;;9.73;100.00;101248.22;5050681;28;20074;-76
2023/05/13 05:19:22;;;;;;;20.55;13.65;;;;;;;9.80;100.00;101249.47;5051350;28;20033;-78
2023/05/13 05:21:48;;;;;;;23.85;13.48;;;;;;;9.82;100.00;101260.72;5051291;28;20025;-75
2023/05/13 05:24:13;;;;;;;22.55;14.70;;;;;;;9.82;100.00;101255.56;5033659;28;20035;-78
2023/05/13 05:26:39;;;;;;;23.73;12.70;;;;;;;9.46;100.00;101178.94;5051568;28;20025;-79
2023/05/13 05:29:05;;;;;;;20.67;11.90;;;;;;;9.97;100.00;101251.22;5051167;28;20028;-77
2023/05/13 05:31:30;;;;;;;19.60;11.63;;;;;;;10.06;100.00;101255.09;5051281;28;20491;-77
2023/05/13 05:33:55;;;;;;;18.60;12.60;;;;;;;10.11;100.00;101264.81;5051225;28;20503;-80
2023/05/13 05:36:23;;;;;;;25.05;11.68;;;;;;;10.12;100.00;101234.75;5050897;28;20032;-79
2023/05/13 05:38:49;;;;;;;19.88;12.18;;;;;;;10.36;100.00;101254.09;5048210;28;20099;-77
2023/05/13 05:41:14;;;;;;;17.73;11.02;;;;;;;10.43;100.00;101252.72;5051248;28;20025;-76
2023/05/13 05:43:39;;;;;;;21.63;13.07;;;;;;;10.60;100.00;101266.44;5050894;28;20037;-76
2023/05/13 05:46:05;;;;;;;21.42;11.00;;;;;;;10.73;100.00;101262.78;5033026;28;20021;-78
2023/05/13 05:48:30;;;;;;;20.42;10.63;;;;;;;10.77;100.00;101249.22;5050770;28;20029;-76
2023/05/13 05:50:56;;;;;;;15.55;11.20;;;;;;;10.87;100.00;101258.28;5051007;28;20631;-80
2023/05/13 05:53:21;;;;;;;17.73;10.95;;;;;;;10.81;100.00;101247.66;5050964;28;20115;-75
2023/05/13 05:55:47;;;;;;;18.90;11.90;;;;;;;10.91;100.00;101261.91;5051109;28;20479;-76
2023/05/13 05:58:16;;;;;;;21.65;11.88;;;;;;;10.97;100.00;101259.63;5015295;28;20041;-76
2023/05/13 06:00:41;;;;;;;19.50;11.68;;;;;;;10.99;100.00;101260.56;5050737;28;20035;-82
2023/05/13 06:03:07;;;;;;;18.80;11.15;;;;;;;11.04;100.00;101263.38;5050512;28;20581;-82
2023/05/13 06:05:32;;;;;;;21.83;11.65;;;;;;;10.98;100.00;101267.44;5050490;28;20040;-77
2023/05/13 06:07:57;;;;;;;18.13;11.15;;;;;;;11.07;100.00;101264.41;5032755;28;20682;-76
2023/05/13 06:10:23;;;;;;;16.73;11.07;;;;;;;11.07;100.00;101248.91;5050714;28;20486;-77
2023/05/13 06:12:50;;;;;;;15.82;10.18;;;;;;;11.07;100.00;101243.75;5050823;28;20033;-76
2023/05/13 06:15:15;;;;;;;20.10;10.85;;;;;;;11.32;100.00;101261.28;5050421;28;20028;-75
2023/05/13 06:17:41;;;;;;;15.43;10.10;;;;;;;11.40;100.00;101248.72;5050498;28;20064;-75
2023/05/13 06:20:06;;;;;;;16.77;10.75;;;;;;;11.54;100.00;101264.88;5050260;28;20029;-75
2023/05/13 06:22:32;;;;;;;14.82;9.75;;;;;;;11.63;100.00;101267.00;5050497;28;20063;-77
2023/05/13 06:24:57;;;;;;;13.15;9.73;;;;;;;11.62;100.00;101271.25;5050140;28;20427;-75
2023/05/13 06:27:23;;;;;;;14.40;10.07;;;;;;;11.31;100.00;101201.75;5050328;28;20025;-76
2023/05/13 06:29:48;;;;;;;14.85;9.90;;;;;;;11.67;100.00;101257.66;5050438;28;20048;-75
2023/05/13 06:32:14;;;;;;;21.52;10.93;;;;;;;11.63;100.00;101265.28;5050140;28;20037;-74
2023/05/13 06:34:45;;;;;;;15.60;8.77;;;;;;;11.77;100.00;101249.50;5050221;28;20024;-75
2023/05/13 06:37:12;;;;;;;12.20;8.85;;;;;;;11.87;100.00;101246.50;5050285;28;20090;-75
2023/05/13 06:39:38;;;;;;;16.25;9.25;;;;;;;11.44;100.00;101165.31;5050447;28;20025;-76
2023/05/13 06:42:03;;;;;;;12.73;8.68;;;;;;;11.99;100.00;101248.78;5050318;28;20037;-77
2023/05/13 06:44:30;;;;;;;13.90;8.57;;;;;;;11.96;100.00;101238.28;5050127;28;20025;-76
2023/05/13 06:46:56;;;;;;;12.00;7.35;;;;;;;12.17;100.00;101219.34;5050275;28;20029;-82
2023/05/13 06:49:23;;;;;;;11.80;7.22;;;;;;;12.45;100.00;101242.97;5049634;28;20102;-76
2023/05/13 06:51:48;;;;;;;8.35;6.35;;;;;;;12.48;100.00;101221.50;5050250;28;20067;-76
2023/05/13 06:54:14;;;;;;;8.90;7.30;;;;;;;12.19;100.00;101171.97;5050079;28;20081;-76
2023/05/13 06:56:39;;;;;;;11.93;7.45;;;;;;;12.70;100.00;101238.81;5049864;28;20080;-75
2023/05/13 06:59:05;;;;;;;12.57;7.50;;;;;;;12.82;100.00;101242.72;5050012;28;20805;-76
2023/05/13 07:01:30;;;;;;;14.00;7.05;;;;;;;12.48;100.00;101180.06;5049979;28;20057;-77
2023/05/13 07:03:55;;;;;;;10.95;6.55;;;;;;;12.61;100.00;101196.97;5049527;28;20035;-77
2023/05/13 07:06:21;;;;;;;9.50;5.68;;;;;;;13.02;100.00;101252.19;5047498;28;20037;-76
2023/05/13 07:08:47;;;;;;;11.27;6.70;;;;;;;13.19;99.12;101249.34;5049952;28;20040;-76
2023/05/13 07:11:12;;;;;;;6.78;5.10;;;;;;;13.47;97.98;101246.16;5050097;28;20029;-79
2023/05/13 07:13:37;;;;;;;9.48;5.80;;;;;;;13.57;98.51;101242.16;5032099;28;20029;-79
2023/05/13 07:16:03;;;;;;;9.05;5.53;;;;;;;13.19;95.49;101200.97;5049822;28;20078;-78
2023/05/13 07:18:29;;;;;;;9.50;6.55;;;;;;;13.62;95.82;101269.19;5049620;28;20036;-80
2023/05/13 07:20:57;;;;;;;8.30;6.20;;;;;;;13.72;96.43;101273.88;5049841;28;20052;-81
2023/05/13 07:23:24;;;;;;;10.13;5.57;;;;;;;13.77;98.24;101275.75;5049877;28;20068;-79
2023/05/13 07:25:51;;;;;;;8.52;5.20;;;;;;;13.40;95.22;101194.84;5050064;28;20028;-77
2023/05/13 07:28:18;;;;;;;7.97;4.93;;;;;;;13.97;93.42;101267.00;5050042;28;20029;-79
2023/05/13 07:30:44;;;;;;;10.38;5.30;;;;;;;13.87;92.05;101251.91;5050124;28;20028;-77
2023/05/13 07:33:09;;;;;;;11.18;5.13;;;;;;;13.95;89.68;101260.84;5049508;28;20461;-79
2023/05/13 07:35:36;;;;;;;6.75;4.93;;;;;;;14.13;89.33;101259.72;5051405;28;20115;-79
2023/05/13 07:38:02;;;;;;;6.85;4.82;;;;;;;14.24;90.63;101259.28;5053696;28;20041;-79
2023/05/13 07:40:27;;;;;;;7.30;4.20;;;;;;;14.08;87.65;101246.56;5035671;28;20032;-78
2023/05/13 07:42:53;;;;;;;8.68;4.63;;;;;;;14.27;91.15;101262.81;5053543;28;20040;-80
2023/05/13 07:45:18;;;;;;;11.63;4.70;;;;;;;14.40;87.91;101265.00;5053383;28;20021;-80
2023/05/13 07:47:44;;;;;;;7.78;4.28;;;;;;;14.47;84.36;101269.56;5053177;28;20484;-82
2023/05/13 07:50:09;;;;;;;9.75;5.10;;;;;;;14.55;90.36;101262.03;5053495;28;20037;-83
2023/05/13 07:52:35;;;;;;;7.05;3.78;;;;;;;14.59;83.18;101273.41;5035488;28;20060;-79
2023/05/13 07:55:00;;;;;;;7.40;3.92;;;;;;;14.47;86.52;101272.16;5053339;28;20548;-79
2023/05/13 07:57:26;;;;;;;9.95;4.28;;;;;;;14.56;85.10;101277.66;5053423;28;20551;-79
2023/05/13 07:59:53;;;;;;;8.60;3.83;;;;;;;14.69;82.68;101263.41;5053179;28;20483;-76
2023/05/13 08:02:18;;;;;;;7.75;4.32;;;;;;;14.43;81.71;101204.47;5053405;28;20098;-76
2023/05/13 08:04:44;;;;;;;6.85;3.85;;;;;;;14.83;82.66;101263.00;5052881;28;20119;-78
2023/05/13 08:07:10;;;;;;;8.65;4.03;;;;;;;14.92;81.94;101258.06;5010972;28;20042;-76
2023/05/13 08:09:36;;;;;;;6.93;4.15;;;;;;;15.00;80.56;101253.09;4994461;28;20041;-76
2023/05/13 08:12:01;;;;;;;7.22;4.38;;;;;;;15.06;79.45;101252.44;5011007;28;20045;-77
2023/05/13 08:14:27;;;;;;;6.88;3.80;;;;;;;15.20;79.08;101248.50;4990051;28;20710;-75
2023/05/13 08:16:52;;;;;;;7.45;3.72;;;;;;;14.80;78.62;101167.56;5006809;28;20053;-78
2023/05/13 08:19:18;;;;;;;8.52;4.15;;;;;;;15.32;78.46;101235.00;5002079;28;20026;-76
2023/05/13 08:21:43;;;;;;;7.30;3.67;;;;;;;15.44;79.78;101232.78;5000665;28;20038;-77
2023/05/13 08:24:09;;;;;;;5.97;3.50;;;;;;;15.39;77.25;101191.81;5001109;28;20084;-77
2023/05/13 08:26:36;;;;;;;4.72;3.53;;;;;;;15.77;78.62;101241.50;4999342;28;20397;-76
2023/05/13 08:29:01;;;;;;;8.40;3.80;;;;;;;15.61;77.18;101230.63;5000982;28;20667;-78
2023/05/13 08:31:27;;;;;;;7.60;3.92;;;;;;;15.52;76.79;101191.34;5000208;28;20030;-76
2023/05/13 08:33:53;;;;;;;5.95;4.07;;;;;;;15.80;75.13;101236.38;4982831;28;20477;-78
2023/05/13 08:36:20;;;;;;;5.30;3.28;;;;;;;15.87;73.70;101234.88;5001183;28;20030;-78
2023/05/13 08:38:46;;;;;;;6.38;3.97;;;;;;;15.85;74.29;101234.81;5031661;28;20038;-79
2023/05/13 08:41:12;;;;;;;5.90;3.30;;;;;;;15.68;73.22;101203.94;5041552;28;20530;-76
2023/05/13 08:43:38;;;;;;;9.07;3.67;;;;;;;15.92;74.38;101223.72;5043467;28;20025;-77
2023/05/13 08:46:07;;;;;;;4.97;3.10;;;;;;;15.94;74.60;101226.38;5023540;28;20040;-71
2023/05/13 08:48:33;;;;;;;5.50;3.60;;;;;;;15.62;73.28;101148.25;5052051;28;20102;-72
2023/05/13 08:51:01;;;;;;;5.28;3.20;;;;;;;16.20;71.57;101216.66;5052266;28;20060;-72
2023/05/13 08:53:26;;;;;;;5.70;2.97;;;;;;;15.92;67.79;101158.63;5052453;28;20024;-76
2023/05/13 08:55:53;;;;;;;7.63;2.90;;;;;;;16.34;68.57;101202.22;5052194;28;20483;-73
2023/05/13 08:58:18;;;;;;;5.18;3.38;;;;;;;16.27;69.52;101189.03;5049483;28;20064;-75
2023/05/13 09:00:44;;;;;;;5.53;3.13;;;;;;;16.34;70.41;101196.16;5032109;28;20045;-76
2023/05/13 09:03:11;;;;;;;4.90;3.03;;;;;;;16.46;70.31;101193.84;5032290;28;20030;-77
2023/05/13 09:05:37;;;;;;;7.82;3.47;;;;;;;16.53;70.80;101188.78;5032492;28;20064;-75
2023/05/13 09:08:07;;;;;;;6.85;3.05;;;;;;;16.15;69.04;101151.41;5032172;28;20085;-74
2023/05/13 09:10:33;;;;;;;4.53;2.67;;;;;;;16.43;68.59;101200.72;5032391;28;20032;-74
2023/05/13 09:13:00;;;;;;;4.00;2.90;;;;;;;16.53;68.72;101192.25;5031934;28;20033;-74
2023/05/13 09:15:27;;;;;;;6.75;3.20;;;;;;;16.79;68.85;101202.44;5032116;28;20432;-74
2023/05/13 09:18:02;;;;;;;4.32;2.78;;;;;;;16.97;66.23;101196.78;5001210;28;20033;-75
2023/05/13 09:20:28;;;;;;;8.27;3.33;;;;;;;17.14;65.15;101200.63;5032191;28;20033;-74
2023/05/13 09:23:01;;;;;;;7.45;3.60;;;;;;;16.74;64.41;101103.25;5031853;28;20059;-75
2023/05/13 09:25:27;;;;;;;5.97;3.20;;;;;;;17.41;65.41;101190.78;5031619;28;20072;-76
2023/05/13 09:27:57;;;;;;;5.93;3.67;;;;;;;17.56;68.12;101185.84;5031594;28;20413;-77
2023/05/13 09:30:24;;;;;;;4.32;2.80;;;;;;;17.78;64.80;101178.41;5031740;28;20056;-75
2023/05/13 09:33:12;;;;;;;6.75;3.35;;;;;;;17.85;63.56;101182.91;5031789;28;20033;-75
2023/05/13 09:35:51;;;;;;;6.75;2.95;;;;;;;17.67;63.91;101104.22;5014030;28;20396;-75
2023/05/13 09:38:38;;;;;;;4.18;2.42;;;;;;;18.09;63.46;101168.53;5009338;28;20515;-74
2023/05/13 09:41:04;;;;;;;8.07;2.90;;;;;;;18.14;62.55;101166.88;5009126;28;20125;-79
2023/05/13 09:43:33;;;;;;;3.83;2.50;;;;;;;18.20;58.57;101160.91;5009304;28;20587;-75
2023/05/13 09:46:04;;;;;;;6.32;2.67;;;;;;;18.17;60.98;101127.75;5009799;28;20038;-75
2023/05/13 09:48:33;;;;;;;6.90;2.90;;;;;;;18.51;56.12;101169.25;5009071;28;20030;-74
2023/05/13 09:51:24;;;;;;;3.30;2.35;;;;;;;18.40;56.06;101162.09;4970250;28;20125;-74
2023/05/13 09:53:50;;;;;;;5.90;2.40;;;;;;;18.07;55.51;101154.59;4970207;28;20083;-74
2023/05/13 09:56:20;;;;;;;3.83;2.10;;;;;;;17.80;56.97;101147.97;4970080;28;20035;-75
2023/05/13 09:58:51;;;;;;;4.07;2.47;;;;;;;17.84;55.75;101155.00;4969385;28;20556;-75
2023/05/13 10:01:17;;;;;;;7.35;2.83;;;;;;;17.90;54.85;101117.69;4969798;28;20067;-74
2023/05/13 10:03:43;;;;;;;5.10;2.50;;;;;;;18.17;55.94;101130.38;4969788;28;20089;-73
2023/05/13 10:06:10;;;;;;;5.20;2.50;;;;;;;17.88;55.13;101056.69;4969999;28;20045;-75
2023/05/13 10:08:37;;;;;;;5.45;2.90;;;;;;;18.54;53.72;101137.88;4971483;28;20504;-75
2023/05/13 10:11:05;;;;;;;4.07;2.90;;;;;;;18.52;53.41;101114.34;4989263;28;20117;-75
2023/05/13 10:13:32;;;;;;;3.35;2.40;;;;;;;18.31;53.40;101072.22;4988973;28;20061;-74
2023/05/13 10:15:58;;;;;;;4.55;2.72;;;;;;;18.50;53.43;101105.59;4988934;28;20091;-75
2023/05/13 10:18:24;;;;;;;4.47;2.20;;;;;;;18.80;54.15;101106.00;4989092;28;20030;-74
2023/05/13 10:20:54;;;;;;;5.63;2.47;;;;;;;18.86;52.97;101069.47;4989250;28;20038;-74
2023/05/13 10:23:20;;;;;;;;;;;;;;;19.18;55.35;101118.72;4989691;28;20049;-73
2023/05/13 10:25:47;;;;;;;4.78;2.55;;;;;;;19.40;51.50;101117.22;4989123;28;19910;-74
2023/05/13 10:28:13;;;;;;;4.40;2.42;;;;;;;19.43;50.40;101130.34;5000213;28;20037;-74
2023/05/13 10:30:39;;;;;;;3.22;2.25;;;;;;;19.52;49.57;101130.44;5008499;28;20188;-75
2023/05/13 10:33:04;;;;;;;4.63;2.47;;;;;;;19.50;49.10;101126.06;5008616;28;20038;-78
2023/05/13 10:35:36;;;;;;;6.97;2.60;;;;;;;19.76;49.70;101121.06;5008643;28;20034;-75
2023/05/13 10:38:13;;;;;;;6.20;2.40;;;;;;;19.76;49.67;101125.44;5008547;28;20026;-74
2023/05/13 10:40:54;;;;;;;3.67;2.03;;;;;;;19.63;49.83;101107.00;5008276;28;20049;-74
2023/05/13 10:43:22;;;;;;;4.20;2.42;;;;;;;19.37;49.48;101107.59;5008491;28;20092;-74
2023/05/13 10:45:48;;;;;;;5.93;2.40;;;;;;;19.54;51.20;101115.63;4991844;28;20080;-75
2023/05/13 10:48:15;;;;;;;4.60;2.28;;;;;;;19.15;49.19;101069.84;5008497;28;20412;-75
2023/05/13 10:51:02;;;;;;;4.07;2.10;;;;;;;19.50;48.54;101092.91;5008411;28;20038;-75
2023/05/13 10:53:30;;;;;;;3.75;2.33;;;;;;;19.58;47.30;101120.88;5008339;28;20034;-75
2023/05/13 10:55:58;;;;;;;4.13;2.13;;;;;;;19.70;46.83;101115.78;5008624;28;20496;-77
2023/05/13 10:58:31;;;;;;;5.10;2.38;;;;;;;20.07;47.59;101126.63;5008514;28;20560;-75
2023/05/13 11:01:17;;;;;;;4.55;2.53;;;;;;;20.42;51.86;101114.66;5011663;28;20046;-78
2023/05/13 11:03:52;;;;;;;5.80;2.50;;;;;;;20.67;44.69;101124.44;5012639;28;20403;-75
2023/05/13 11:06:19;;;;;;;4.13;1.90;;;;;;;20.42;43.50;101107.66;5012716;28;20025;-74
2023/05/13 11:08:47;;;;;;;4.40;1.95;;;;;;;20.62;43.25;101114.75;5015876;28;20486;-77
2023/05/13 11:11:26;;;;;;;5.60;2.30;;;;;;;20.82;43.88;101126.28;5043755;28;20033;-76
2023/05/13 11:13:53;;;;;;;4.15;2.53;;;;;;;20.80;43.39;101124.53;5025716;28;20104;-76
2023/05/13 11:16:19;;;;;;;6.05;1.90;;;;;;;20.82;42.83;101102.69;5025108;28;20091;-76
2023/05/13 11:18:45;;;;;;;4.05;2.00;;;;;;;20.78;39.55;101095.63;5033655;28;20029;-80